Time;durP1;ratioP1;P1;durP2;ratioP2;P2;SDS_P1;SDS_P2;PMS_P1;PMS_P2;Temp;Humidity;BMP_temperature;BMP_pressure;BME280_temperature;BME280_humidity;BME280_pressure;Samples;Min_cycle;Max_cycle;Signal;HPM_P1;HPM_P2
2022/04/27 00:01:30;;;;;;;10.43;9.43;;;;;;;6.24;100.00;96089.81;5011193;28;24428;-73
2022/04/27 00:03:56;;;;;;;12.07;9.27;;;;;;;6.32;100.00;96099.78;5011665;28;24421;-73
2022/04/27 00:06:23;;;;;;;11.00;10.00;;;;;;;6.37;100.00;96102.16;5011452;28;24834;-73
2022/04/27 00:08:49;;;;;;;9.85;8.95;;;;;;;6.46;100.00;96094.91;5011476;28;24431;-72
2022/04/27 00:11:17;;;;;;;10.10;9.18;;;;;;;6.46;100.00;96102.63;5011273;28;24428;-73
2022/04/27 00:13:44;;;;;;;10.40;9.40;;;;;;;6.51;100.00;96094.72;5011013;28;24420;-72
2022/04/27 00:16:10;;;;;;;11.35;10.10;;;;;;;6.55;100.00;96097.09;5011306;28;24447;-73
2022/04/27 00:18:38;;;;;;;10.93;9.82;;;;;;;6.63;100.00;96091.63;5011309;28;24432;-73
2022/04/27 00:21:04;;;;;;;10.93;10.00;;;;;;;6.57;100.00;96084.19;5011288;28;24428;-73
2022/04/27 00:23:32;;;;;;;10.32;9.32;;;;;;;6.58;100.00;96090.16;5010954;28;24431;-73
2022/04/27 00:25:59;;;;;;;11.52;10.45;;;;;;;6.58;100.00;96085.00;5011000;28;24434;-73
2022/04/27 00:28:28;;;;;;;10.73;9.73;;;;;;;6.65;100.00;96084.69;5010972;28;24431;-72
2022/04/27 00:30:55;;;;;;;11.18;10.10;;;;;;;6.69;100.00;96090.53;5010974;28;24464;-73
2022/04/27 00:33:21;;;;;;;11.25;10.05;;;;;;;6.68;100.00;96079.41;5010889;28;24447;-73
2022/04/27 00:35:48;;;;;;;11.32;10.32;;;;;;;6.64;100.00;96069.31;5010808;28;25025;-73
2022/04/27 00:38:14;;;;;;;11.15;10.05;;;;;;;6.72;100.00;96074.97;5010901;28;24424;-73
2022/04/27 00:40:41;;;;;;;11.50;10.57;;;;;;;6.69;100.00;96080.25;5011193;28;24428;-73
2022/04/27 00:43:07;;;;;;;14.60;13.13;;;;;;;6.42;100.00;96080.50;5010774;28;24451;-73
2022/04/27 00:45:35;;;;;;;13.27;12.07;;;;;;;6.49;100.00;96078.53;5011109;28;24435;-73
2022/04/27 00:48:02;;;;;;;13.30;12.05;;;;;;;6.38;100.00;96085.81;5010949;28;24466;-73
2022/04/27 00:50:30;;;;;;;13.55;12.32;;;;;;;6.31;100.00;96082.69;5011061;28;24463;-73
2022/04/27 00:52:57;;;;;;;13.82;12.43;;;;;;;6.34;100.00;96090.28;5010658;28;24444;-73
2022/04/27 00:55:24;;;;;;;12.85;11.55;;;;;;;6.30;100.00;96088.69;5010881;28;24431;-73
2022/04/27 00:57:51;;;;;;;12.05;11.05;;;;;;;6.37;100.00;96100.41;5010860;28;24423;-73
2022/04/27 01:00:18;;;;;;;13.97;12.67;;;;;;;6.25;100.00;96101.75;5010896;28;24420;-73
2022/04/27 01:02:46;;;;;;;13.50;12.30;;;;;;;6.35;100.00;96101.41;5010647;28;24506;-73
2022/04/27 01:05:13;;;;;;;12.93;11.73;;;;;;;6.31;100.00;96105.84;5010623;28;24451;-72
2022/04/27 01:07:41;;;;;;;13.88;12.60;;;;;;;6.41;100.00;96101.97;5010836;28;24432;-73
2022/04/27 01:10:10;;;;;;;12.98;11.88;;;;;;;6.46;100.00;96101.78;5010691;28;24432;-74
2022/04/27 01:12:36;;;;;;;15.90;14.35;;;;;;;6.39;100.00;96106.34;5010374;28;24997;-74
2022/04/27 01:15:04;;;;;;;14.55;13.23;;;;;;;6.30;100.00;96092.13;5011433;28;24440;-72
2022/04/27 01:17:31;;;;;;;14.52;13.07;;;;;;;6.30;100.00;96099.84;5011258;28;24432;-72
2022/04/27 01:19:58;;;;;;;13.32;12.02;;;;;;;6.41;100.00;96104.53;5011219;28;24431;-72
2022/04/27 01:22:28;;;;;;;15.25;13.90;;;;;;;6.35;100.00;96102.25;5011101;28;24420;-72
2022/04/27 01:24:56;;;;;;;15.35;13.77;;;;;;;6.26;100.00;96095.72;5011052;28;24938;-72
2022/04/27 01:27:23;;;;;;;13.57;12.27;;;;;;;6.19;100.00;96096.88;5011401;28;24446;-73
2022/04/27 01:29:49;;;;;;;13.18;12.05;;;;;;;6.27;100.00;96096.56;5011142;28;24997;-72
2022/04/27 01:32:16;;;;;;;12.82;11.63;;;;;;;6.37;100.00;96090.13;5010846;28;24986;-72
2022/04/27 01:34:42;;;;;;;12.45;11.38;;;;;;;6.37;100.00;96092.69;5011126;28;24990;-72
2022/04/27 01:39:54;;;;;;;15.88;13.60;;;;;;;6.46;100.00;96089.78;5010916;28;24427;-72
2022/04/27 01:42:20;;;;;;;13.55;12.10;;;;;;;6.52;100.00;96102.34;5010791;28;24474;-72
2022/04/27 01:44:47;;;;;;;13.38;12.07;;;;;;;6.59;100.00;96096.97;5011078;28;24799;-72
2022/04/27 01:47:13;;;;;;;12.27;11.07;;;;;;;6.71;100.00;96099.00;5011135;28;24478;-72
2022/04/27 01:49:40;;;;;;;13.95;12.57;;;;;;;6.56;100.00;96108.22;5010800;28;24424;-72
2022/04/27 01:54:51;;;;;;;13.85;12.65;;;;;;;6.55;100.00;96103.97;5010804;28;24412;-72
2022/04/27 01:57:19;;;;;;;14.43;12.77;;;;;;;6.55;100.00;96098.84;5010844;28;24416;-72
2022/04/27 01:59:45;;;;;;;13.50;12.30;;;;;;;6.43;100.00;96105.31;5012869;28;24508;-72
2022/04/27 02:02:11;;;;;;;14.00;12.80;;;;;;;6.50;100.00;96106.75;5014391;28;24438;-73
2022/04/27 02:04:39;;;;;;;12.88;11.63;;;;;;;6.55;100.00;96101.41;5014100;28;25056;-72
2022/04/27 02:07:06;;;;;;;14.25;12.85;;;;;;;6.65;100.00;96097.56;5014035;28;24484;-72
2022/04/27 02:09:32;;;;;;;12.93;11.45;;;;;;;6.66;100.00;96104.38;5014202;28;24479;-72
2022/04/27 02:11:58;;;;;;;13.43;12.23;;;;;;;6.69;100.00;96113.69;5014065;28;24498;-72
2022/04/27 02:14:26;;;;;;;14.68;13.27;;;;;;;6.50;100.00;96118.78;5014111;28;24447;-72
2022/04/27 02:16:53;;;;;;;13.25;12.10;;;;;;;6.39;100.00;96120.97;5013671;28;24420;-72
2022/04/27 02:19:20;;;;;;;12.63;11.43;;;;;;;6.41;100.00;96117.41;5014291;28;24432;-72
2022/04/27 02:21:47;;;;;;;13.77;12.55;;;;;;;6.28;100.00;96126.53;5013790;28;24527;-72
2022/04/27 02:24:13;;;;;;;13.48;12.27;;;;;;;6.32;100.00;96124.69;5013889;28;24783;-72
2022/04/27 02:26:41;;;;;;;13.32;11.98;;;;;;;6.40;100.00;96120.88;5013596;28;24532;-73
2022/04/27 02:29:08;;;;;;;13.57;12.48;;;;;;;6.37;100.00;96118.44;5013637;28;24432;-72
2022/04/27 02:31:36;;;;;;;14.57;13.27;;;;;;;6.50;100.00;96127.34;5013520;28;24433;-72
2022/04/27 02:34:02;;;;;;;14.52;13.02;;;;;;;6.56;100.00;96118.50;5013859;28;24495;-72
2022/04/27 02:36:29;;;;;;;15.32;14.02;;;;;;;6.42;100.00;96129.38;5013565;28;24841;-72
2022/04/27 02:38:55;;;;;;;14.73;13.32;;;;;;;6.69;100.00;96114.53;5013447;28;24424;-72
2022/04/27 02:41:22;;;;;;;15.20;13.60;;;;;;;6.75;100.00;96116.88;5013276;28;24424;-72
2022/04/27 02:43:49;;;;;;;15.93;13.93;;;;;;;6.87;100.00;96118.06;5012946;28;25083;-72
2022/04/27 02:46:15;;;;;;;14.98;13.57;;;;;;;6.98;100.00;96121.03;5012842;28;25052;-72
2022/04/27 02:51:48;;;;;;;14.63;13.18;;;;;;;6.81;100.00;96118.31;5013155;28;24433;-72
2022/04/27 02:54:13;;;;;;;13.10;11.80;;;;;;;6.81;100.00;96118.31;5012912;28;24448;-72
2022/04/27 02:56:40;;;;;;;13.85;12.63;;;;;;;6.74;100.00;96112.59;5012807;28;24428;-72
2022/04/27 02:59:06;;;;;;;14.63;12.63;;;;;;;6.70;100.00;96120.50;5013001;28;24441;-73
2022/04/27 03:01:33;;;;;;;13.70;12.43;;;;;;;6.68;100.00;96120.59;5012755;28;24424;-73
2022/04/27 03:04:00;;;;;;;15.00;13.32;;;;;;;6.64;100.00;96119.06;5013037;28;24487;-72
2022/04/27 03:06:27;;;;;;;14.68;13.30;;;;;;;6.68;100.00;96117.19;5012847;28;24417;-73
2022/04/27 03:08:53;;;;;;;13.60;12.20;;;;;;;6.65;100.00;96122.47;5013018;28;24447;-72
2022/04/27 03:11:20;;;;;;;12.90;11.80;;;;;;;6.61;100.00;96126.06;5012976;28;24432;-72
2022/04/27 03:13:46;;;;;;;13.15;11.88;;;;;;;6.63;100.00;96132.78;5012614;28;24980;-73
2022/04/27 03:16:13;;;;;;;13.45;12.15;;;;;;;6.66;100.00;96122.38;5013035;28;24436;-72
2022/04/27 03:18:39;;;;;;;12.90;11.60;;;;;;;6.93;100.00;96122.13;5012930;28;24428;-72
2022/04/27 03:21:07;;;;;;;13.05;11.85;;;;;;;7.06;100.00;96128.41;5013068;28;24435;-72
2022/04/27 03:23:33;;;;;;;14.40;11.52;;;;;;;6.91;100.00;96124.75;5012563;28;24417;-72
2022/04/27 03:26:00;;;;;;;13.63;12.23;;;;;;;6.94;100.00;96127.22;5012995;28;24416;-72
2022/04/27 03:28:26;;;;;;;12.57;11.48;;;;;;;6.88;100.00;96127.47;5012555;28;24985;-72
2022/04/27 03:30:53;;;;;;;11.95;10.75;;;;;;;6.77;100.00;96121.94;5012819;28;24428;-72
2022/04/27 03:33:19;;;;;;;12.48;11.30;;;;;;;6.88;100.00;96129.22;5012333;28;24491;-73
2022/04/27 03:35:46;;;;;;;12.20;11.07;;;;;;;6.71;100.00;96133.34;5012645;28;24483;-72
2022/04/27 03:38:15;;;;;;;11.43;9.88;;;;;;;6.65;100.00;96135.31;5012212;28;24435;-72
2022/04/27 03:40:42;;;;;;;11.57;10.52;;;;;;;6.53;100.00;96134.94;5012593;28;24452;-72
2022/04/27 03:43:09;;;;;;;11.35;10.05;;;;;;;6.59;100.00;96141.53;5012190;28;24471;-72
2022/04/27 03:45:35;;;;;;;11.77;10.63;;;;;;;6.59;100.00;96141.53;5012306;28;24459;-72
2022/04/27 03:48:02;;;;;;;10.50;9.50;;;;;;;6.69;100.00;96144.59;5012197;28;24833;-72
2022/04/27 03:50:29;;;;;;;12.00;9.88;;;;;;;6.94;100.00;96142.66;5012162;28;24416;-72
2022/04/27 03:52:55;;;;;;;11.00;9.75;;;;;;;6.71;100.00;96148.78;5011813;28;24444;-72
2022/04/27 03:55:23;;;;;;;11.30;10.20;;;;;;;6.62;100.00;96154.28;5012064;28;24419;-72
2022/04/27 03:57:50;;;;;;;13.32;10.13;;;;;;;6.59;100.00;96153.59;5012281;28;24443;-72
2022/04/27 04:00:16;;;;;;;10.38;9.43;;;;;;;6.62;100.00;96159.44;5011986;28;25027;-72
2022/04/27 04:02:43;;;;;;;10.32;9.43;;;;;;;6.62;100.00;96164.59;5011840;28;24416;-73
2022/04/27 04:05:09;;;;;;;9.82;8.82;;;;;;;6.65;100.00;96166.22;5012075;28;24447;-72
2022/04/27 04:07:35;;;;;;;9.75;8.82;;;;;;;6.60;100.00;96162.97;5012131;28;24432;-72
2022/04/27 04:10:03;;;;;;;10.00;9.10;;;;;;;6.68;100.00;96176.38;5012191;28;24448;-72
2022/04/27 04:12:31;;;;;;;9.80;8.90;;;;;;;7.17;100.00;96171.75;5011821;28;24427;-72
2022/04/27 04:14:57;;;;;;;9.57;8.63;;;;;;;6.88;100.00;96172.97;5011568;28;24440;-72
2022/04/27 04:17:23;;;;;;;21.55;9.98;;;;;;;6.94;100.00;96165.84;5011848;28;24428;-73
2022/04/27 04:19:50;;;;;;;10.20;8.60;;;;;;;6.73;100.00;96179.59;5011713;28;24790;-72
2022/04/27 04:22:16;;;;;;;10.80;9.27;;;;;;;6.70;100.00;96184.88;5011394;28;24436;-73
2022/04/27 04:28:29;;;;;;;10.57;9.57;;;;;;;6.78;100.00;96191.38;5011513;28;24416;-73
2022/04/27 04:30:15;;;;;;;10.38;9.18;;;;;;;6.72;100.00;96191.63;5011383;28;24575;-72
2022/04/27 04:32:41;;;;;;;11.15;9.43;;;;;;;6.62;100.00;96194.63;5011797;28;24431;-72
2022/04/27 04:35:08;;;;;;;9.43;8.52;;;;;;;6.49;100.00;96196.88;5011784;28;24416;-72
2022/04/27 04:37:35;;;;;;;10.50;9.13;;;;;;;6.34;100.00;96203.47;5011595;28;25063;-72
2022/04/27 04:40:01;;;;;;;13.17;8.83;;;;;;;6.35;100.00;96207.72;5011706;28;24424;-71
2022/04/27 04:42:28;;;;;;;8.90;8.10;;;;;;;6.47;100.00;96212.38;5011375;28;24518;-72
2022/04/27 04:44:56;;;;;;;8.80;7.97;;;;;;;6.51;100.00;96213.91;5011424;28;24467;-72
2022/04/27 04:47:23;;;;;;;10.17;8.60;;;;;;;6.44;100.00;96217.63;5011785;28;24460;-71
2022/04/27 04:49:49;;;;;;;9.03;8.23;;;;;;;6.46;100.00;96221.00;5011100;28;24560;-72
2022/04/27 04:52:16;;;;;;;10.82;8.38;;;;;;;6.53;100.00;96224.16;5011015;28;24424;-72
2022/04/27 04:54:42;;;;;;;8.65;7.95;;;;;;;6.55;100.00;96225.75;5011082;28;24498;-72
2022/04/27 04:57:09;;;;;;;8.40;7.70;;;;;;;6.64;100.00;96221.16;5010904;28;24969;-72
2022/04/27 04:59:35;;;;;;;9.77;8.90;;;;;;;6.50;100.00;96221.72;5009541;28;24496;-71
2022/04/27 05:02:03;;;;;;;9.38;8.48;;;;;;;6.67;100.00;96227.00;5008374;28;24436;-72
2022/04/27 05:04:30;;;;;;;9.20;8.40;;;;;;;6.64;100.00;96224.56;4991109;28;24432;-71
2022/04/27 05:06:57;;;;;;;8.95;8.15;;;;;;;6.48;100.00;96229.47;4990982;28;24421;-72
2022/04/27 05:09:24;;;;;;;9.50;8.52;;;;;;;6.59;100.00;96225.66;4991253;28;24428;-71
2022/04/27 05:11:50;;;;;;;8.98;8.18;;;;;;;6.67;100.00;96226.16;4990485;28;24517;-71
2022/04/27 05:14:17;;;;;;;9.02;8.13;;;;;;;6.71;100.00;96232.88;4991516;28;24449;-72
2022/04/27 05:16:43;;;;;;;9.35;8.45;;;;;;;6.71;100.00;96230.28;5011931;28;24408;-72
2022/04/27 05:19:11;;;;;;;10.00;8.82;;;;;;;6.69;100.00;96232.94;5010327;28;24425;-72
2022/04/27 05:21:37;;;;;;;10.80;9.68;;;;;;;6.75;100.00;96237.03;4994078;28;24429;-71
2022/04/27 05:24:04;;;;;;;10.20;9.13;;;;;;;6.74;100.00;96238.72;4990953;28;24504;-71
2022/04/27 05:26:31;;;;;;;10.32;9.43;;;;;;;6.67;100.00;96237.28;4990500;28;24421;-71
2022/04/27 05:31:58;;;;;;;10.95;9.73;;;;;;;6.64;100.00;96249.47;4990681;28;24517;-72
2022/04/27 05:34:30;;;;;;;9.88;8.95;;;;;;;6.66;100.00;96251.06;4992343;28;24532;-72
2022/04/27 05:36:56;;;;;;;10.77;9.23;;;;;;;6.75;100.00;96255.03;4994334;28;24951;-72
2022/04/27 05:39:23;;;;;;;9.82;8.93;;;;;;;6.96;100.00;96256.72;4994764;28;24440;-72
2022/04/27 05:41:50;;;;;;;10.23;9.05;;;;;;;6.96;100.00;96264.44;4994344;28;24467;-71
2022/04/27 05:44:17;;;;;;;11.13;10.05;;;;;;;6.92;100.00;96267.22;4997919;28;24540;-71
2022/04/27 05:46:44;;;;;;;11.15;10.23;;;;;;;6.86;100.00;96264.88;5013989;28;24431;-72
2022/04/27 05:49:11;;;;;;;12.00;10.88;;;;;;;7.15;100.00;96266.28;5013938;28;24436;-71
2022/04/27 05:51:38;;;;;;;12.20;11.00;;;;;;;7.07;100.00;96268.34;5013549;28;24478;-71
2022/04/27 05:54:05;;;;;;;11.65;10.55;;;;;;;6.87;100.00;96269.97;5013868;28;24970;-72
2022/04/27 05:56:32;;;;;;;11.70;10.30;;;;;;;6.89;100.00;96275.06;5014122;28;24421;-71
2022/04/27 05:58:58;;;;;;;10.75;9.85;;;;;;;6.79;100.00;96278.03;5013133;28;24431;-71
2022/04/27 06:01:25;;;;;;;12.63;11.00;;;;;;;6.92;100.00;96275.78;5014045;28;24523;-72
2022/04/27 06:03:53;;;;;;;11.75;10.65;;;;;;;6.90;100.00;96281.91;5013194;28;24961;-71
2022/04/27 06:06:20;;;;;;;11.47;10.27;;;;;;;6.86;100.00;96281.19;5013203;28;24482;-71
2022/04/27 06:08:48;;;;;;;11.60;10.50;;;;;;;6.90;100.00;96287.88;5013525;28;24523;-72
2022/04/27 06:11:15;;;;;;;11.10;9.85;;;;;;;6.78;100.00;96284.03;5013543;28;24993;-69
2022/04/27 06:13:41;;;;;;;10.63;9.63;;;;;;;6.79;100.00;96290.88;5013050;28;24488;-72
2022/04/27 06:16:08;;;;;;;10.87;9.77;;;;;;;6.89;100.00;96290.50;5013112;28;24420;-72
2022/04/27 06:18:34;;;;;;;10.27;9.27;;;;;;;6.88;100.00;96294.81;5012856;28;24431;-72
2022/04/27 06:21:01;;;;;;;10.85;9.75;;;;;;;6.94;100.00;96307.47;5013530;28;24435;-72
2022/04/27 06:23:27;;;;;;;10.07;9.23;;;;;;;6.84;100.00;96295.00;5013095;28;24937;-72
2022/04/27 06:25:57;;;;;;;9.68;8.82;;;;;;;6.91;100.00;96299.03;5013474;28;24475;-72
2022/04/27 06:28:23;;;;;;;10.10;9.10;;;;;;;7.01;100.00;96302.91;5019947;28;24503;-72
2022/04/27 06:30:50;;;;;;;11.85;9.82;;;;;;;6.83;100.00;96301.91;5014242;28;24432;-72
2022/04/27 06:33:16;;;;;;;11.93;10.27;;;;;;;6.81;100.00;96308.00;5012510;28;24798;-72
2022/04/27 06:35:43;;;;;;;9.53;8.57;;;;;;;6.97;100.00;96302.19;5013124;28;24427;-72
2022/04/27 06:38:09;;;;;;;8.68;7.80;;;;;;;6.95;100.00;96313.44;5012969;28;24432;-72
2022/04/27 06:40:36;;;;;;;8.90;8.00;;;;;;;6.91;100.00;96309.31;5011666;28;24440;-72
2022/04/27 06:43:03;;;;;;;8.30;7.60;;;;;;;6.94;100.00;96310.03;5011849;28;24988;-71
2022/04/27 06:45:31;;;;;;;9.98;8.73;;;;;;;7.04;100.00;96310.50;5011954;28;24787;-71
2022/04/27 06:47:58;;;;;;;9.40;8.50;;;;;;;7.11;100.00;96311.94;5011892;28;24483;-72
2022/04/27 06:50:25;;;;;;;9.57;8.40;;;;;;;7.02;100.00;96323.44;5012401;28;24424;-72
2022/04/27 06:52:52;;;;;;;9.35;8.35;;;;;;;7.02;100.00;96327.75;5011926;28;24434;-72
2022/04/27 06:55:19;;;;;;;11.13;8.68;;;;;;;7.06;100.00;96329.31;5012549;28;24444;-72
2022/04/27 06:57:46;;;;;;;9.82;8.63;;;;;;;7.01;100.00;96331.25;5012352;28;24416;-72
2022/04/27 07:00:14;;;;;;;9.95;9.02;;;;;;;6.99;100.00;96343.34;5011848;28;24543;-72
2022/04/27 07:02:41;;;;;;;9.88;8.88;;;;;;;7.11;100.00;96339.44;5011697;28;24479;-72
2022/04/27 07:05:12;;;;;;;9.07;8.20;;;;;;;7.08;100.00;96336.97;5012053;28;24412;-72
2022/04/27 07:07:39;;;;;;;11.07;9.25;;;;;;;7.21;100.00;96343.31;5012089;28;24430;-72
2022/04/27 07:10:06;;;;;;;9.93;8.93;;;;;;;7.28;100.00;96345.59;5014520;28;24442;-72
2022/04/27 07:12:32;;;;;;;10.50;9.60;;;;;;;7.33;100.00;96347.97;5011787;28;24966;-71
2022/04/27 07:14:59;;;;;;;10.15;9.15;;;;;;;7.16;100.00;96347.81;5012545;28;24448;-72
2022/04/27 07:17:27;;;;;;;10.30;9.30;;;;;;;7.16;100.00;96348.66;5012251;28;24502;-72
2022/04/27 07:19:53;;;;;;;10.27;9.20;;;;;;;7.37;100.00;96351.25;5012370;28;24461;-71
2022/04/27 07:22:19;;;;;;;11.43;9.10;;;;;;;7.26;100.00;96351.69;5012480;28;24428;-72
2022/04/27 07:24:46;;;;;;;10.45;9.27;;;;;;;7.34;100.00;96353.94;5012222;28;25004;-72
2022/04/27 07:27:12;;;;;;;9.93;8.80;;;;;;;7.24;100.00;96362.06;5012021;28;24436;-73
2022/04/27 07:29:39;;;;;;;9.80;8.90;;;;;;;7.44;100.00;96357.84;5018746;28;24436;-72
2022/04/27 07:32:06;;;;;;;12.60;10.27;;;;;;;7.62;100.00;96361.41;5020146;28;24440;-73
2022/04/27 07:34:34;;;;;;;10.15;9.20;;;;;;;7.42;100.00;96355.34;5023997;28;24463;-72
2022/04/27 07:37:02;;;;;;;10.70;9.07;;;;;;;7.83;100.00;96362.25;5009802;28;24487;-72
2022/04/27 07:39:29;;;;;;;12.20;9.60;;;;;;;7.95;100.00;96359.13;5013156;28;24436;-72
2022/04/27 07:41:56;;;;;;;10.10;9.20;;;;;;;7.71;100.00;96361.00;5015674;28;24432;-72
2022/04/27 07:44:22;;;;;;;11.00;9.13;;;;;;;7.72;100.00;96363.53;5022991;28;24871;-72
2022/04/27 07:46:49;;;;;;;10.27;9.38;;;;;;;8.11;100.00;96361.88;5016231;28;24463;-72
2022/04/27 07:49:19;;;;;;;10.23;9.23;;;;;;;8.25;100.00;96365.53;5011243;28;25039;-72
2022/04/27 07:51:47;;;;;;;10.73;9.63;;;;;;;8.17;100.00;96375.34;5011767;28;24487;-73
2022/04/27 07:54:14;;;;;;;9.45;8.55;;;;;;;8.43;100.00;96368.25;5011712;28;24448;-74
2022/04/27 07:56:40;;;;;;;9.18;8.27;;;;;;;8.35;100.00;96371.13;5010518;28;24420;-74
2022/04/27 07:59:07;;;;;;;9.15;8.32;;;;;;;8.37;100.00;96373.63;5011563;28;24435;-73
2022/04/27 08:01:33;;;;;;;9.25;8.35;;;;;;;8.50;100.00;96379.97;5009477;28;25002;-74
2022/04/27 08:04:00;;;;;;;12.27;7.78;;;;;;;8.50;100.00;96385.13;5011335;28;24774;-74
2022/04/27 08:06:26;;;;;;;8.93;7.63;;;;;;;8.69;100.00;96385.97;5010991;28;24439;-73
2022/04/27 08:08:54;;;;;;;9.17;8.33;;;;;;;8.67;100.00;96390.38;5011040;28;24455;-73
2022/04/27 08:11:22;;;;;;;9.20;8.40;;;;;;;8.50;100.00;96394.63;5011470;28;24413;-73
2022/04/27 08:13:48;;;;;;;9.88;8.98;;;;;;;8.50;100.00;96395.47;5010962;28;24421;-72
2022/04/27 08:16:15;;;;;;;10.60;9.50;;;;;;;8.63;100.00;96396.56;5011219;28;24420;-72
2022/04/27 08:18:41;;;;;;;10.10;9.18;;;;;;;8.41;100.00;96390.69;5011198;28;24423;-73
2022/04/27 08:21:21;;;;;;;11.55;9.10;;;;;;;8.50;100.00;96398.03;5011405;28;24479;-75
2022/04/27 08:23:49;;;;;;;9.90;8.90;;;;;;;8.85;100.00;96400.78;5010867;28;24435;-73
2022/04/27 08:26:17;;;;;;;10.63;9.52;;;;;;;8.83;100.00;96402.59;5011143;28;24463;-74
2022/04/27 08:28:45;;;;;;;9.98;9.07;;;;;;;8.88;100.00;96409.22;5010927;28;24435;-73
2022/04/27 08:31:14;;;;;;;9.32;8.43;;;;;;;9.21;100.00;96406.81;5009800;28;25009;-74
2022/04/27 08:33:42;;;;;;;9.23;8.13;;;;;;;9.15;100.00;96403.69;5010328;28;24524;-73
2022/04/27 08:36:08;;;;;;;9.10;8.20;;;;;;;9.27;100.00;96397.94;5010782;28;24471;-73
2022/04/27 08:38:35;;;;;;;9.27;8.40;;;;;;;9.40;100.00;96405.94;5011050;28;24508;-73
2022/04/27 08:41:02;;;;;;;10.07;9.13;;;;;;;9.77;100.00;96402.41;5011222;28;24435;-73
2022/04/27 08:43:30;;;;;;;10.18;9.18;;;;;;;9.90;100.00;96402.63;5011217;28;24486;-74
2022/04/27 08:46:02;;;;;;;9.70;8.90;;;;;;;10.13;100.00;96402.31;5011102;28;24766;-73
2022/04/27 08:48:29;;;;;;;11.07;9.50;;;;;;;10.49;100.00;96411.69;5010754;28;24424;-73
2022/04/27 08:50:55;;;;;;;8.82;7.93;;;;;;;10.45;100.00;96414.53;5010844;28;24996;-73
2022/04/27 08:53:22;;;;;;;9.40;8.50;;;;;;;10.36;100.00;96411.50;5010766;28;24431;-73
2022/04/27 08:55:52;;;;;;;8.65;7.85;;;;;;;10.51;100.00;96409.03;5010977;28;20778;-73
2022/04/27 08:58:20;;;;;;;8.82;7.90;;;;;;;11.09;100.00;96411.13;5010823;28;24980;-73
2022/04/27 09:00:48;;;;;;;6.63;5.95;;;;;;;10.96;100.00;96417.88;5009570;28;20857;-72
2022/04/27 09:03:25;;;;;;;7.38;6.68;;;;;;;10.65;100.00;96416.94;5010028;28;20766;-72
2022/04/27 09:05:53;;;;;;;10.68;7.07;;;;;;;10.52;100.00;96423.66;5010765;28;20761;-72
2022/04/27 09:08:20;;;;;;;8.10;6.47;;;;;;;10.35;100.00;96422.78;5012210;28;20808;-72
2022/04/27 09:10:47;;;;;;;7.72;7.00;;;;;;;10.51;100.00;96419.41;5014762;28;24431;-73
2022/04/27 09:13:13;;;;;;;10.35;7.07;;;;;;;10.49;100.00;96418.63;5014553;28;24420;-72
2022/04/27 09:15:40;;;;;;;8.07;7.38;;;;;;;10.38;100.00;96422.66;5014543;28;24444;-72
2022/04/27 09:21:00;;;;;;;7.40;6.60;;;;;;;10.06;100.00;96424.25;5013545;28;24539;-73
2022/04/27 09:23:29;;;;;;;8.07;7.35;;;;;;;10.65;100.00;96419.53;5013657;28;24527;-73
2022/04/27 09:25:57;;;;;;;8.43;7.40;;;;;;;11.23;100.00;96424.16;5014272;28;24520;-72
2022/04/27 09:28:26;;;;;;;9.38;7.93;;;;;;;11.54;100.00;96422.47;5013967;28;20775;-72
2022/04/27 09:30:53;;;;;;;7.38;6.68;;;;;;;11.86;100.00;96423.25;5014115;28;20754;-72
2022/04/27 09:33:35;;;;;;;7.05;6.00;;;;;;;11.96;100.00;96421.78;5014001;28;20766;-72
2022/04/27 09:36:18;;;;;;;9.48;5.95;;;;;;;11.94;100.00;96420.19;5014038;28;20745;-74
2022/04/27 09:38:44;;;;;;;6.45;5.75;;;;;;;11.53;100.00;96424.22;5012866;28;24990;-72
2022/04/27 09:41:11;;;;;;;6.75;6.05;;;;;;;11.65;100.00;96424.47;5014154;28;20755;-72
2022/04/27 09:43:42;;;;;;;7.05;6.15;;;;;;;11.54;100.00;96419.88;5013988;28;20796;-72
2022/04/27 09:46:17;;;;;;;8.60;6.38;;;;;;;11.36;100.00;96419.13;5013572;28;21284;-73
2022/04/27 09:48:46;;;;;;;6.25;5.65;;;;;;;11.24;100.00;96414.63;5013701;28;20873;-72
2022/04/27 09:51:14;;;;;;;7.07;6.47;;;;;;;11.07;100.00;96425.91;5013737;28;20743;-73
2022/04/27 09:53:42;;;;;;;6.90;6.20;;;;;;;10.97;100.00;96427.31;5013361;28;20800;-73
2022/04/27 09:56:11;;;;;;;6.75;6.07;;;;;;;10.73;100.00;96425.13;5013397;28;24543;-73
2022/04/27 09:58:43;;;;;;;6.95;6.25;;;;;;;10.58;100.00;96428.53;5013796;28;20746;-73
2022/04/27 10:01:13;;;;;;;7.07;6.38;;;;;;;10.35;100.00;96432.31;5013429;28;20677;-72
2022/04/27 10:03:41;;;;;;;8.48;7.68;;;;;;;10.34;100.00;96430.63;5012318;28;24531;-72
2022/04/27 10:06:09;;;;;;;7.73;7.03;;;;;;;10.45;100.00;96436.09;5013246;28;24490;-72
2022/04/27 10:08:38;;;;;;;8.23;7.43;;;;;;;10.58;100.00;96436.31;5013610;28;24470;-72
2022/04/27 10:11:05;;;;;;;8.90;7.30;;;;;;;10.42;100.00;96433.69;5013990;28;24814;-72
2022/04/27 10:13:33;;;;;;;7.95;7.22;;;;;;;10.70;100.00;96435.66;5013252;28;20755;-72
2022/04/27 10:16:00;;;;;;;7.47;6.70;;;;;;;10.88;100.00;96439.03;5013132;28;24471;-72
2022/04/27 10:18:27;;;;;;;6.75;6.15;;;;;;;11.24;100.00;96425.00;5012815;28;25037;-72
2022/04/27 10:20:53;;;;;;;7.35;5.03;;;;;;;11.19;98.33;96430.44;5012896;28;24423;-73
2022/04/27 10:23:24;;;;;;;8.38;6.40;;;;;;;11.82;100.00;96427.75;5013112;28;24950;-72
2022/04/27 10:26:12;;;;;;;6.05;5.45;;;;;;;12.04;100.00;96427.38;5013428;28;20663;-73
2022/04/27 10:28:41;;;;;;;6.68;5.30;;;;;;;12.04;100.00;96431.75;5012936;28;20656;-73
2022/04/27 10:31:08;;;;;;;5.57;4.88;;;;;;;11.85;98.57;96425.00;5013266;28;20858;-73
2022/04/27 10:33:42;;;;;;;7.88;5.32;;;;;;;12.00;100.00;96420.69;5013258;28;24520;-72
2022/04/27 10:36:38;;;;;;;10.38;5.68;;;;;;;11.95;94.60;96421.91;5013279;28;20801;-72
2022/04/27 10:39:26;;;;;;;5.95;5.35;;;;;;;11.79;94.92;96421.88;5013171;28;24825;-73
2022/04/27 10:42:18;;;;;;;5.60;5.07;;;;;;;11.88;97.88;96421.41;5013111;28;20790;-73
2022/04/27 10:45:10;;;;;;;6.20;5.13;;;;;;;11.71;100.00;96426.69;5013059;28;20796;-73
2022/04/27 10:47:37;;;;;;;5.95;5.45;;;;;;;11.77;99.83;96421.16;5013493;28;21153;-73
2022/04/27 10:50:30;;;;;;;6.60;6.00;;;;;;;11.79;98.31;96432.28;5012916;28;24507;-73
2022/04/27 10:53:01;;;;;;;5.20;4.63;;;;;;;12.00;95.36;96428.47;5018188;28;25198;-73
2022/04/27 10:56:00;;;;;;;4.75;4.35;;;;;;;12.00;100.00;96430.25;5013144;28;20894;-72
2022/04/27 10:58:30;;;;;;;4.93;4.35;;;;;;;11.90;95.42;96434.28;4947445;28;20667;-74
2022/04/27 11:01:18;;;;;;;6.20;4.30;;;;;;;11.92;96.12;96433.28;4981176;28;20704;-74
2022/04/27 11:03:55;;;;;;;5.55;4.63;;;;;;;11.95;98.06;96432.28;4992963;28;24433;-73
2022/04/27 11:06:23;;;;;;;6.13;4.82;;;;;;;11.81;91.14;96440.81;4995802;28;21121;-74
2022/04/27 11:09:03;;;;;;;5.10;4.60;;;;;;;11.60;97.69;96438.50;5000231;28;20802;-73
2022/04/27 11:11:31;;;;;;;4.72;4.32;;;;;;;11.90;97.08;96439.47;4999842;28;24512;-73
2022/04/27 11:14:03;;;;;;;4.97;4.47;;;;;;;11.89;93.67;96437.81;5005279;28;24440;-74
2022/04/27 11:16:29;;;;;;;6.03;4.22;;;;;;;11.78;94.26;96447.00;5012323;28;24502;-73
2022/04/27 11:18:57;;;;;;;4.88;4.30;;;;;;;11.62;96.31;96447.03;5012017;28;20779;-74
2022/04/27 11:21:25;;;;;;;5.38;4.88;;;;;;;11.37;98.36;96442.38;5011896;28;20812;-74
2022/04/27 11:23:52;;;;;;;5.38;4.47;;;;;;;11.36;97.92;96443.31;5012151;28;20777;-74
2022/04/27 11:26:18;;;;;;;5.00;4.50;;;;;;;11.26;100.00;96443.91;5012382;28;20758;-73
2022/04/27 11:28:48;;;;;;;5.18;4.68;;;;;;;11.27;99.25;96441.25;5012491;28;20759;-73
2022/04/27 11:31:16;;;;;;;5.07;4.57;;;;;;;11.22;99.49;96443.22;5013258;28;21311;-73
2022/04/27 11:33:43;;;;;;;4.90;4.50;;;;;;;11.23;100.00;96444.88;5012124;28;20746;-73
2022/04/27 11:36:21;;;;;;;6.10;4.93;;;;;;;11.17;98.08;96449.59;5012175;28;20786;-73
2022/04/27 11:38:49;;;;;;;5.10;4.60;;;;;;;11.30;98.85;96450.59;5012187;28;21335;-73
2022/04/27 11:41:18;;;;;;;7.10;4.97;;;;;;;11.16;99.78;96453.94;5012125;28;20831;-73
2022/04/27 11:43:47;;;;;;;6.03;5.43;;;;;;;11.11;99.99;96461.94;5011835;28;20800;-74
2022/04/27 11:46:15;;;;;;;5.45;4.63;;;;;;;11.07;95.45;96463.03;5011648;28;24424;-73